createdAt,value
2022-09-03T00:01:31.253Z,27.42
2022-09-03T00:03:31.193Z,27.39
2022-09-03T00:06:31.256Z,27.36
2022-09-03T00:09:31.181Z,27.35
2022-09-03T00:11:31.228Z,27.35
2022-09-03T00:13:31.199Z,27.34
2022-09-03T00:16:31.182Z,27.32
2022-09-03T00:18:31.168Z,27.34
2022-09-03T00:21:31.221Z,27.35
2022-09-03T00:23:31.403Z,27.31
2022-09-03T00:26:31.211Z,27.26
2022-09-03T00:29:31.177Z,27.27
2022-09-03T00:32:31.176Z,27.27
2022-09-03T00:34:31.157Z,27.24
2022-09-03T00:37:33.674Z,27.18
2022-09-03T00:40:31.155Z,27.17
2022-09-03T00:42:31.157Z,27.18
2022-09-03T00:44:31.206Z,27.17
2022-09-03T00:46:31.463Z,27.16
2022-09-03T00:49:31.209Z,27.11
2022-09-03T00:52:33.600Z,27.1
2022-09-03T00:54:31.194Z,27.13
2022-09-03T00:56:31.183Z,27.16
2022-09-03T00:59:31.185Z,27.18
2022-09-03T01:02:31.289Z,27.08
2022-09-03T01:06:31.198Z,27.03
2022-09-03T01:08:41.481Z,27.05
2022-09-03T01:11:31.202Z,27.05
2022-09-03T01:13:31.244Z,27.03
2022-09-03T01:16:31.217Z,27
2022-09-03T01:19:31.201Z,26.9
2022-09-03T01:21:31.228Z,26.87
2022-09-03T01:24:31.201Z,26.9
2022-09-03T01:27:31.195Z,26.94
2022-09-03T01:29:31.235Z,26.97
2022-09-03T01:32:31.225Z,26.9
2022-09-03T01:34:31.224Z,26.9
2022-09-03T01:37:31.230Z,26.86
2022-09-03T01:40:31.185Z,26.86
2022-09-03T01:42:31.201Z,26.87
2022-09-03T01:45:31.199Z,26.88
2022-09-03T01:48:31.227Z,26.87
2022-09-03T01:51:31.187Z,26.82
2022-09-03T01:53:31.207Z,26.8
2022-09-03T01:56:31.234Z,26.74
2022-09-03T01:59:31.201Z,26.67
2022-09-03T02:01:31.270Z,26.66
2022-09-03T02:03:31.260Z,26.66
2022-09-03T02:06:31.237Z,26.68
2022-09-03T02:08:31.232Z,26.68
2022-09-03T02:11:31.251Z,26.7
2022-09-03T02:14:31.230Z,26.67
2022-09-03T02:16:31.249Z,26.64
2022-09-03T02:19:31.258Z,26.63
2022-09-03T02:22:31.247Z,26.56
2022-09-03T02:24:31.776Z,26.55
2022-09-03T02:27:31.263Z,26.56
2022-09-03T02:29:31.261Z,26.57
2022-09-03T02:32:31.256Z,26.57
2022-09-03T02:35:31.262Z,26.56
2022-09-03T02:38:31.247Z,26.56
2022-09-03T02:40:31.224Z,26.53
2022-09-03T02:43:31.459Z,26.53
2022-09-03T02:46:31.254Z,26.54
2022-09-03T02:48:31.286Z,26.5
2022-09-03T02:51:31.256Z,26.48
2022-09-03T02:53:31.244Z,26.44
2022-09-03T02:56:31.352Z,26.43
2022-09-03T02:59:31.266Z,26.43
2022-09-03T03:02:31.304Z,26.42
2022-09-03T03:05:31.250Z,26.41
2022-09-03T03:08:31.223Z,26.39
2022-09-03T03:10:31.234Z,26.4
2022-09-03T03:12:38.449Z,26.39
2022-09-03T03:15:31.214Z,26.38
2022-09-03T03:17:31.242Z,26.4
2022-09-03T03:20:31.235Z,26.38
2022-09-03T03:22:31.218Z,26.34
2022-09-03T03:24:31.225Z,26.31
2022-09-03T03:27:31.252Z,26.31
2022-09-03T03:30:31.258Z,26.28
2022-09-03T03:32:31.276Z,26.25
2022-09-03T03:35:31.249Z,26.26
2022-09-03T03:38:31.237Z,26.28
2022-09-03T03:40:31.261Z,26.29
2022-09-03T03:43:31.278Z,26.23
2022-09-03T03:46:31.222Z,26.23
2022-09-03T03:48:31.254Z,26.19
2022-09-03T03:51:31.292Z,26.12
2022-09-03T03:54:31.253Z,26.02
2022-09-03T03:56:31.253Z,25.95
2022-09-03T03:59:31.283Z,25.96
2022-09-03T04:02:31.329Z,26.02
2022-09-03T04:04:31.270Z,26.05
2022-09-03T04:07:31.228Z,26.1
2022-09-03T04:10:31.271Z,26.01
2022-09-03T04:12:31.270Z,25.94
2022-09-03T04:15:31.237Z,25.95
2022-09-03T04:17:31.631Z,25.99
2022-09-03T04:20:31.243Z,26.05
2022-09-03T04:22:31.315Z,26
2022-09-03T04:25:31.288Z,25.99
2022-09-03T04:28:31.264Z,26.01
2022-09-03T04:30:31.324Z,25.98
2022-09-03T04:33:31.244Z,25.95
2022-09-03T04:35:31.265Z,25.93
2022-09-03T04:38:31.282Z,25.79
2022-09-03T04:41:31.270Z,25.73
2022-09-03T04:43:31.317Z,25.76
2022-09-03T04:45:31.334Z,25.77
2022-09-03T04:47:31.848Z,25.74
2022-09-03T04:50:31.294Z,25.67
2022-09-03T04:53:31.270Z,25.66
2022-09-03T04:55:31.288Z,25.69
2022-09-03T04:57:31.291Z,25.7
2022-09-03T05:00:31.289Z,25.69
2022-09-03T05:02:32.032Z,25.69
2022-09-03T05:05:31.295Z,25.59
2022-09-03T05:07:31.299Z,25.59
2022-09-03T05:10:31.329Z,25.56
2022-09-03T05:13:31.282Z,25.56
2022-09-03T05:15:31.260Z,25.49
2022-09-03T05:18:31.260Z,25.41
2022-09-03T05:20:31.287Z,25.36
2022-09-03T05:22:31.282Z,25.29
2022-09-03T05:25:31.297Z,25.25
2022-09-03T05:28:31.269Z,25.26
2022-09-03T05:33:31.322Z,25.28
2022-09-03T05:35:31.341Z,25.25
2022-09-03T05:38:31.255Z,25.18
2022-09-03T05:41:31.308Z,25.19
2022-09-03T05:44:31.331Z,25.23
2022-09-03T05:46:31.346Z,25.2
2022-09-03T05:49:31.263Z,25.21
2022-09-03T05:52:31.285Z,25.13
2022-09-03T05:54:31.309Z,25.1
2022-09-03T05:57:31.269Z,25.05
2022-09-03T05:59:31.276Z,25.1
2022-09-03T06:02:31.395Z,24.88
2022-09-03T06:05:31.319Z,24.48
2022-09-03T06:08:31.299Z,24.56
2022-09-03T06:11:31.276Z,24.75
2022-09-03T06:13:31.289Z,24.84
2022-09-03T06:15:31.318Z,24.8
2022-09-03T06:17:31.304Z,24.7
2022-09-03T06:20:35.073Z,24.7
2022-09-03T06:23:31.335Z,24.71
2022-09-03T06:25:31.338Z,24.75
2022-09-03T06:28:31.303Z,24.73
2022-09-03T06:31:31.335Z,24.57
2022-09-03T06:33:31.291Z,24.54
2022-09-03T06:35:31.316Z,24.56
2022-09-03T06:37:31.338Z,24.64
2022-09-03T06:40:31.301Z,24.68
2022-09-03T06:43:31.267Z,24.65
2022-09-03T06:45:31.356Z,24.64
2022-09-03T06:47:31.344Z,24.69
2022-09-03T06:50:34.466Z,24.77
2022-09-03T06:52:31.307Z,24.81
2022-09-03T06:55:03.235Z,24.85
2022-09-03T06:56:33.073Z,24.85
2022-09-03T06:59:31.293Z,24.83
2022-09-03T07:02:31.301Z,24.88
2022-09-03T07:04:31.289Z,24.88
2022-09-03T07:07:31.578Z,24.92
2022-09-03T07:10:31.281Z,24.94
2022-09-03T07:13:31.295Z,24.94
2022-09-03T07:15:31.324Z,24.92
2022-09-03T07:18:31.313Z,24.85
2022-09-03T07:20:31.315Z,24.87
2022-09-03T07:23:31.323Z,24.83
2022-09-03T07:26:31.293Z,24.89
2022-09-03T07:29:31.314Z,24.93
2022-09-03T07:32:31.295Z,24.97
2022-09-03T07:34:31.321Z,25
2022-09-03T07:36:35.220Z,24.99
2022-09-03T07:39:31.404Z,24.98
2022-09-03T07:42:31.322Z,25
2022-09-03T07:45:31.298Z,24.97
2022-09-03T07:47:31.322Z,24.97
2022-09-03T07:49:31.318Z,24.98
2022-09-03T07:52:31.320Z,24.91
2022-09-03T07:54:31.341Z,24.86
2022-09-03T07:57:31.296Z,24.84
2022-09-03T07:59:31.928Z,24.86
2022-09-03T08:02:31.325Z,24.9
2022-09-03T08:05:31.314Z,24.89
2022-09-03T08:07:31.361Z,24.84
2022-09-03T08:10:31.314Z,24.84
2022-09-03T08:13:31.313Z,24.82
2022-09-03T08:15:31.314Z,24.84
2022-09-03T08:17:31.324Z,24.82
2022-09-03T08:19:31.375Z,24.85
2022-09-03T08:22:31.343Z,24.85
2022-09-03T08:25:31.346Z,24.86
2022-09-03T08:28:31.346Z,24.82
2022-09-03T08:31:31.343Z,24.89
2022-09-03T08:33:31.327Z,24.92
2022-09-03T08:35:31.307Z,24.94
2022-09-03T08:38:31.336Z,24.88
2022-09-03T08:40:31.339Z,24.89
2022-09-03T08:43:31.351Z,24.84
2022-09-03T08:45:31.349Z,24.86
2022-09-03T08:48:31.376Z,24.91
2022-09-03T08:50:31.357Z,24.99
2022-09-03T08:52:31.373Z,25.03
2022-09-03T08:55:31.333Z,25.12
2022-09-03T08:58:31.326Z,25.12
2022-09-03T09:00:31.348Z,25.16
2022-09-03T09:03:31.335Z,25.18
2022-09-03T09:06:31.333Z,25.16
2022-09-03T09:08:31.348Z,25.14
2022-09-03T09:11:31.348Z,25.07
2022-09-03T09:13:31.387Z,25.14
2022-09-03T09:16:31.837Z,25.18
2022-09-03T09:19:31.397Z,25.15
2022-09-03T09:21:32.355Z,25.11
2022-09-03T09:24:31.371Z,25.25
2022-09-03T09:27:31.369Z,25.22
2022-09-03T09:30:31.379Z,25.29
2022-09-03T09:32:31.432Z,25.31
2022-09-03T09:35:31.407Z,25.38
2022-09-03T09:38:31.358Z,25.47
2022-09-03T09:41:31.373Z,25.47
2022-09-03T09:44:31.366Z,25.48
2022-09-03T09:47:31.371Z,25.42
2022-09-03T09:49:31.445Z,25.41
2022-09-03T09:52:31.372Z,25.48
2022-09-03T09:55:31.431Z,25.53
2022-09-03T09:58:31.377Z,25.57
2022-09-03T10:00:31.394Z,25.58
2022-09-03T10:03:31.364Z,25.53
2022-09-03T10:06:31.358Z,25.55
2022-09-03T10:08:31.395Z,25.53
2022-09-03T10:11:31.352Z,25.44
2022-09-03T10:14:31.364Z,25.32
2022-09-03T10:16:31.368Z,25.34
2022-09-03T10:18:31.647Z,25.33
2022-09-03T10:20:31.436Z,25.32
2022-09-03T10:23:31.368Z,25.3
2022-09-03T10:25:31.407Z,25.28
2022-09-03T10:27:32.068Z,25.34
2022-09-03T10:30:31.346Z,25.37
2022-09-03T10:32:33.994Z,25.4
2022-09-03T10:34:31.379Z,25.45
2022-09-03T10:37:31.369Z,25.49
2022-09-03T10:39:31.412Z,25.52
2022-09-03T10:41:31.371Z,25.53
2022-09-03T10:44:31.351Z,25.61
2022-09-03T10:46:31.453Z,25.61
2022-09-03T10:49:31.421Z,25.63
2022-09-03T10:52:31.391Z,25.65
2022-09-03T10:54:31.434Z,25.69
2022-09-03T10:57:31.426Z,25.73
2022-09-03T11:03:31.451Z,25.78
2022-09-03T11:06:31.388Z,25.76
2022-09-03T11:09:31.371Z,25.82
2022-09-03T11:11:31.424Z,25.86
2022-09-03T11:13:31.425Z,25.92
2022-09-03T11:16:31.394Z,26.02
2022-09-03T11:18:31.427Z,26.09
2022-09-03T11:21:25.769Z,26.19
2022-09-03T11:23:31.435Z,26.23
2022-09-03T11:25:31.393Z,26.29
2022-09-03T11:28:31.408Z,26.37
2022-09-03T11:30:31.578Z,26.4
2022-09-03T11:33:31.450Z,26.44
2022-09-03T11:36:31.393Z,26.49
2022-09-03T11:38:31.429Z,26.5
2022-09-03T11:41:31.415Z,26.49
2022-09-03T11:44:31.402Z,26.55
2022-09-03T11:46:31.462Z,26.61
2022-09-03T11:49:31.420Z,26.71
2022-09-03T11:52:31.384Z,26.82
2022-09-03T11:54:31.439Z,26.89
2022-09-03T11:56:31.412Z,26.96
2022-09-03T11:59:31.401Z,27.03
2022-09-03T12:01:31.398Z,27.05
2022-09-03T12:04:31.561Z,27.06
2022-09-03T12:07:31.422Z,27.07
2022-09-03T12:09:31.429Z,27.06
2022-09-03T12:12:31.428Z,27
2022-09-03T12:15:31.455Z,26.96
2022-09-03T12:17:31.431Z,26.95
2022-09-03T12:20:31.446Z,26.97
2022-09-03T12:23:31.405Z,27.03
2022-09-03T12:26:31.412Z,27.15
2022-09-03T12:28:31.399Z,27.23
2022-09-03T12:31:31.433Z,27.31
2022-09-03T12:34:31.412Z,27.42
2022-09-03T12:36:31.464Z,27.49
2022-09-03T12:41:31.529Z,27.61
2022-09-03T12:44:31.439Z,27.69
2022-09-03T12:47:36.287Z,27.82
2022-09-03T12:50:31.396Z,27.95
2022-09-03T12:52:31.430Z,28.01
2022-09-03T12:55:31.431Z,28.15
2022-09-03T12:57:32.299Z,28.26
2022-09-03T13:00:31.899Z,28.47
2022-09-03T13:03:31.460Z,28.59
2022-09-03T13:06:31.402Z,28.65
2022-09-03T13:08:31.429Z,28.66
2022-09-03T13:11:31.433Z,28.73
2022-09-03T13:14:31.415Z,28.73
2022-09-03T13:16:31.521Z,28.75
2022-09-03T13:19:31.406Z,28.9
2022-09-03T13:21:31.423Z,29
2022-09-03T13:24:31.538Z,29.17
2022-09-03T13:27:31.669Z,29.51
2022-09-03T13:30:31.530Z,29.87
2022-09-03T13:32:31.457Z,30
2022-09-03T13:34:31.428Z,30.04
2022-09-03T13:36:31.428Z,30.21
2022-09-03T13:39:31.590Z,30.44
2022-09-03T13:42:31.435Z,30.47
2022-09-03T13:44:31.462Z,30.53
2022-09-03T13:47:31.521Z,30.55
2022-09-03T13:50:31.425Z,30.64
2022-09-03T13:52:31.496Z,30.66
2022-09-03T13:55:31.463Z,30.68
2022-09-03T13:58:31.623Z,30.81
2022-09-03T14:00:31.451Z,31.09
2022-09-03T14:03:31.441Z,31.14
2022-09-03T14:06:31.422Z,30.85
2022-09-03T14:08:31.498Z,30.77
2022-09-03T14:11:31.466Z,30.83
2022-09-03T14:13:31.477Z,30.79
2022-09-03T14:15:31.429Z,30.75
2022-09-03T14:18:31.444Z,30.71
2022-09-03T14:20:31.422Z,30.69
2022-09-03T14:23:31.474Z,30.6
2022-09-03T14:25:31.491Z,30.52
2022-09-03T14:28:31.432Z,30.39
2022-09-03T14:30:31.440Z,30.29
2022-09-03T14:32:31.995Z,30.2
2022-09-03T14:35:31.472Z,30.03
2022-09-03T14:37:31.479Z,29.9
2022-09-03T14:39:32.545Z,29.79
2022-09-03T14:41:31.481Z,29.66
2022-09-03T14:44:31.459Z,29.39
2022-09-03T14:46:31.496Z,29.25
2022-09-03T14:49:31.492Z,29.07
2022-09-03T14:52:31.473Z,28.92
2022-09-03T14:54:31.507Z,28.82
2022-09-03T14:56:31.511Z,28.7
2022-09-03T14:59:31.497Z,28.59
2022-09-03T15:02:32.249Z,28.47
2022-09-03T15:05:31.488Z,28.35
2022-09-03T15:07:31.506Z,28.26
2022-09-03T15:10:31.472Z,28.2
2022-09-03T15:12:31.520Z,28.13
2022-09-03T15:15:31.491Z,27.99
2022-09-03T15:18:31.484Z,27.92
2022-09-03T15:20:31.509Z,27.92
2022-09-03T15:23:31.461Z,27.87
2022-09-03T15:25:31.511Z,27.84
2022-09-03T15:27:31.492Z,27.77
2022-09-03T15:30:31.486Z,27.66
2022-09-03T15:32:31.516Z,27.63
2022-09-03T15:34:31.871Z,27.62
2022-09-03T15:37:31.481Z,27.66
2022-09-03T15:40:31.564Z,27.67
2022-09-03T15:42:31.515Z,27.68
2022-09-03T15:45:31.549Z,27.65
2022-09-03T15:47:37.633Z,27.63
2022-09-03T15:49:31.507Z,27.61
2022-09-03T15:52:31.488Z,27.58
2022-09-03T15:54:31.512Z,27.57
2022-09-03T15:57:31.491Z,27.53
2022-09-03T15:59:31.517Z,27.56
2022-09-03T16:02:31.523Z,27.56
2022-09-03T16:04:31.957Z,27.53
2022-09-03T16:07:31.469Z,27.5
2022-09-03T16:09:31.484Z,27.5
2022-09-03T16:11:31.486Z,27.47
2022-09-03T16:13:31.518Z,27.45
2022-09-03T16:16:31.641Z,27.46
2022-09-03T16:19:31.487Z,27.36
2022-09-03T16:22:31.560Z,27.37
2022-09-03T16:25:31.485Z,27.36
2022-09-03T16:27:31.563Z,27.36
2022-09-03T16:30:31.468Z,27.34
2022-09-03T16:32:31.548Z,27.34
2022-09-03T16:35:31.501Z,27.37
2022-09-03T16:38:31.486Z,27.34
2022-09-03T16:40:31.472Z,27.34
2022-09-03T16:42:31.539Z,27.35
2022-09-03T16:44:31.515Z,27.39
2022-09-03T16:47:31.486Z,27.41
2022-09-03T16:49:34.829Z,27.45
2022-09-03T16:51:31.481Z,27.53
2022-09-03T16:53:31.478Z,27.61
2022-09-03T16:56:31.490Z,27.76
2022-09-03T17:00:03.396Z,27.89
2022-09-03T17:02:41.009Z,27.98
2022-09-03T17:05:31.548Z,28.04
2022-09-03T17:08:31.495Z,28.07
2022-09-03T17:10:31.479Z,28.06
2022-09-03T17:12:31.515Z,28.1
2022-09-03T17:14:31.524Z,28.1
2022-09-03T17:17:31.531Z,28.06
2022-09-03T17:19:31.505Z,28.01
2022-09-03T17:22:31.544Z,27.95
2022-09-03T17:25:31.533Z,27.92
2022-09-03T17:28:31.541Z,27.9
2022-09-03T17:30:31.520Z,27.85
2022-09-03T17:32:31.539Z,27.83
2022-09-03T17:34:31.551Z,27.81
2022-09-03T17:37:31.544Z,27.79
2022-09-03T17:40:31.507Z,27.73
2022-09-03T17:42:31.533Z,27.68
2022-09-03T17:45:31.527Z,27.63
2022-09-03T17:48:31.480Z,27.61
2022-09-03T17:50:31.515Z,27.59
2022-09-03T17:53:31.550Z,27.55
2022-09-03T17:56:31.498Z,27.5
2022-09-03T17:58:31.540Z,27.49
2022-09-03T18:00:31.520Z,27.48
2022-09-03T18:03:31.528Z,27.48
2022-09-03T18:05:31.565Z,27.47
2022-09-03T18:08:31.557Z,27.4
2022-09-03T18:10:31.530Z,27.36
2022-09-03T18:13:31.563Z,27.3
2022-09-03T18:16:31.689Z,27.25
2022-09-03T18:19:31.532Z,27.25
2022-09-03T18:21:32.270Z,27.27
2022-09-03T18:24:31.536Z,27.25
2022-09-03T18:27:31.544Z,27.25
2022-09-03T18:30:31.562Z,27.19
2022-09-03T18:32:31.568Z,27.13
2022-09-03T18:35:31.541Z,27.06
2022-09-03T18:38:31.519Z,26.98
2022-09-03T18:40:31.566Z,26.96
2022-09-03T18:42:31.567Z,27
2022-09-03T18:45:42.254Z,27.03
2022-09-03T18:48:03.617Z,27.03
2022-09-03T18:50:31.579Z,26.99
2022-09-03T18:52:31.571Z,26.94
2022-09-03T18:54:45.259Z,26.89
2022-09-03T18:57:31.548Z,26.9
2022-09-03T18:59:31.648Z,26.88
2022-09-03T19:02:31.638Z,26.81
2022-09-03T19:04:31.631Z,26.76
2022-09-03T19:06:34.098Z,26.71
2022-09-03T19:08:31.712Z,26.7
2022-09-03T19:11:31.622Z,26.67
2022-09-03T19:14:31.582Z,26.66
2022-09-03T19:17:31.550Z,26.64
2022-09-03T19:19:31.561Z,26.63
2022-09-03T19:22:31.599Z,26.61
2022-09-03T19:25:31.577Z,26.58
2022-09-03T19:27:52.066Z,26.58
2022-09-03T19:30:31.594Z,26.61
2022-09-03T19:32:31.598Z,26.63
2022-09-03T19:35:31.609Z,26.63
2022-09-03T19:38:31.936Z,26.66
2022-09-03T19:41:31.556Z,26.62
2022-09-03T19:43:34.895Z,26.61
2022-09-03T19:46:31.651Z,26.59
2022-09-03T19:48:31.609Z,26.59
2022-09-03T19:51:31.594Z,26.48
2022-09-03T19:54:31.574Z,26.4
2022-09-03T19:56:31.596Z,26.38
2022-09-03T20:00:33.108Z,26.36
2022-09-03T20:02:31.649Z,26.34
2022-09-03T20:05:31.592Z,26.32
2022-09-03T20:08:31.572Z,26.3
2022-09-03T20:11:31.573Z,26.25
2022-09-03T20:14:31.565Z,26.22
2022-09-03T20:16:31.588Z,26.18
2022-09-03T20:19:31.571Z,26.18
2022-09-03T20:22:31.552Z,26.17
2022-09-03T20:24:31.580Z,26.15
2022-09-03T20:26:31.582Z,26.14
2022-09-03T20:28:31.590Z,26.07
2022-09-03T20:31:31.643Z,25.96
2022-09-03T20:33:31.576Z,25.93
2022-09-03T20:36:31.584Z,25.88
2022-09-03T20:39:31.585Z,25.86
2022-09-03T20:42:32.110Z,25.86
2022-09-03T20:45:31.578Z,25.84
2022-09-03T20:48:31.589Z,25.76
2022-09-03T20:51:31.563Z,25.74
2022-09-03T20:53:31.627Z,25.66
2022-09-03T20:56:31.584Z,25.67
2022-09-03T20:58:31.628Z,25.7
2022-09-03T21:01:31.629Z,25.68
2022-09-03T21:03:31.633Z,25.6
2022-09-03T21:05:41.874Z,25.62
2022-09-03T21:08:52.139Z,25.58
2022-09-03T21:10:53.829Z,25.53
2022-09-03T21:13:41.968Z,25.45
2022-09-03T21:16:31.764Z,25.42
2022-09-03T21:19:31.562Z,25.34
2022-09-03T21:21:35.501Z,25.32
2022-09-03T21:23:31.639Z,25.33
2022-09-03T21:26:31.592Z,25.23
2022-09-03T21:28:31.642Z,25.25
2022-09-03T21:31:03.900Z,25.27
2022-09-03T21:34:36.360Z,25.16
2022-09-03T21:36:31.621Z,25.21
2022-09-03T21:38:31.639Z,25.22
2022-09-03T21:44:31.625Z,25.24
2022-09-03T21:47:31.670Z,25.22
2022-09-03T21:50:31.684Z,25.16
2022-09-03T21:52:32.349Z,25.1
2022-09-03T21:55:31.624Z,25.06
2022-09-03T21:58:31.667Z,25.06
2022-09-03T22:01:31.681Z,24.99
2022-09-03T22:03:31.631Z,24.95
2022-09-03T22:06:31.625Z,24.94
2022-09-03T22:09:31.617Z,24.97
2022-09-03T22:11:31.639Z,24.92
2022-09-03T22:14:31.597Z,24.84
2022-09-03T22:16:31.711Z,24.78
2022-09-03T22:19:31.691Z,24.75
2022-09-03T22:22:31.614Z,24.87
2022-09-03T22:24:31.716Z,24.87
2022-09-03T22:27:31.629Z,24.82
2022-09-03T22:30:31.644Z,24.84
2022-09-03T22:32:31.622Z,24.89
2022-09-03T22:34:31.632Z,24.9
2022-09-03T22:36:31.633Z,24.88
2022-09-03T22:39:31.699Z,24.86
2022-09-03T22:42:31.595Z,24.86
2022-09-03T22:44:31.668Z,24.82
2022-09-03T22:47:31.984Z,24.79
2022-09-03T22:50:31.635Z,24.75
2022-09-03T22:53:31.607Z,24.76
2022-09-03T22:55:31.627Z,24.75
2022-09-03T22:58:31.622Z,24.74
2022-09-03T23:00:31.662Z,24.7
2022-09-03T23:02:31.648Z,24.67
2022-09-03T23:04:31.665Z,24.68
2022-09-03T23:06:32.584Z,24.68
2022-09-03T23:09:31.655Z,24.57
2022-09-03T23:11:31.689Z,24.54
2022-09-03T23:14:31.704Z,24.43
2022-09-03T23:19:31.696Z,24.5
2022-09-03T23:21:31.700Z,24.55
2022-09-03T23:23:31.706Z,24.51
2022-09-03T23:26:31.678Z,24.47
2022-09-03T23:28:31.701Z,24.51
2022-09-03T23:31:31.687Z,24.5
2022-09-03T23:33:31.683Z,24.38
2022-09-03T23:39:31.758Z,24.28
2022-09-03T23:41:31.697Z,24.25
2022-09-03T23:44:31.631Z,24.16
2022-09-03T23:46:32.153Z,24.13
2022-09-03T23:49:31.695Z,24.19
2022-09-03T23:51:31.678Z,24.13
2022-09-03T23:54:31.658Z,24.07
2022-09-03T23:57:31.656Z,24.01
